Time;durP1;ratioP1;P1;durP2;ratioP2;P2;SDS_P1;SDS_P2;PMS_P1;PMS_P2;Temp;Humidity;BMP_temperature;BMP_pressure;BME280_temperature;BME280_humidity;BME280_pressure;Samples;Min_cycle;Max_cycle;Signal;HPM_P1;HPM_P2
2021/08/05 00:01:19;;;;;;;4.22;2.50;;;;;;;16.70;78.09;100213.19;4956659;28;20444;-81
2021/08/05 00:03:44;;;;;;;7.22;2.95;;;;;;;16.64;77.73;100207.16;4974485;28;20485;-80
2021/08/05 00:06:09;;;;;;;5.47;3.15;;;;;;;16.62;77.64;100203.69;4956841;28;20421;-81
2021/08/05 00:08:35;;;;;;;4.75;2.80;;;;;;;16.59;77.87;100195.81;4974419;28;20428;-80
2021/08/05 00:11:00;;;;;;;3.80;2.80;;;;;;;16.60;77.97;100197.53;4973980;28;20545;-81
2021/08/05 00:13:26;;;;;;;7.65;2.78;;;;;;;16.58;78.06;100194.06;4973962;28;20043;-81
2021/08/05 00:15:51;;;;;;;4.40;2.72;;;;;;;16.60;78.21;100194.88;4940388;28;20031;-80
2021/08/05 00:18:17;;;;;;;6.07;3.92;;;;;;;16.47;79.02;100188.25;4973910;28;20031;-81
2021/08/05 00:20:42;;;;;;;5.72;3.60;;;;;;;16.33;79.72;100194.06;4965178;28;20045;-81
2021/08/05 00:23:07;;;;;;;5.50;4.07;;;;;;;16.29;79.66;100186.22;4974124;28;20593;-80
2021/08/05 00:25:33;;;;;;;5.18;3.72;;;;;;;16.27;79.70;100180.97;4973871;28;20062;-81
2021/08/05 00:27:58;;;;;;;5.38;3.00;;;;;;;16.37;79.64;100192.16;4973972;28;20138;-81
2021/08/05 00:30:24;;;;;;;5.97;3.10;;;;;;;16.44;78.89;100185.69;4965218;28;20046;-80
2021/08/05 00:32:50;;;;;;;4.78;2.63;;;;;;;16.43;78.31;100192.81;4974135;28;20039;-80
2021/08/05 00:35:15;;;;;;;5.65;3.00;;;;;;;16.43;78.63;100187.50;4956330;28;20560;-80
2021/08/05 00:37:42;;;;;;;3.72;2.75;;;;;;;16.37;79.01;100184.16;4964884;28;20043;-80
2021/08/05 00:40:08;;;;;;;5.32;3.45;;;;;;;16.36;79.18;100185.97;4956068;28;20027;-80
2021/08/05 00:42:33;;;;;;;4.93;3.28;;;;;;;16.44;78.81;100180.38;4974225;28;20038;-80
2021/08/05 00:44:59;;;;;;;4.95;3.20;;;;;;;16.42;78.51;100175.09;4956291;28;20039;-80
2021/08/05 00:47:27;;;;;;;7.05;3.15;;;;;;;16.39;79.20;100179.66;4956261;28;20031;-80
2021/08/05 00:49:55;;;;;;;5.97;4.10;;;;;;;16.32;79.33;100181.69;4956120;28;20031;-80
2021/08/05 00:52:21;;;;;;;4.72;3.00;;;;;;;16.33;79.30;100180.75;4947512;28;20663;-80
2021/08/05 00:54:46;;;;;;;3.92;2.70;;;;;;;16.33;79.02;100171.91;4980915;28;20031;-80
2021/08/05 00:57:12;;;;;;;4.25;2.60;;;;;;;16.33;78.60;100174.56;4980771;28;20470;-80
2021/08/05 00:59:37;;;;;;;4.72;3.40;;;;;;;16.29;78.98;100172.91;4963659;28;20034;-78
2021/08/05 01:02:16;;;;;;;5.13;3.47;;;;;;;16.17;79.73;100169.78;4947755;28;20031;-79
2021/08/05 01:04:45;;;;;;;5.82;4.07;;;;;;;16.15;79.99;100170.75;4960941;28;20051;-80
2021/08/05 01:07:16;;;;;;;5.53;4.10;;;;;;;16.18;80.12;100167.97;4947642;28;20114;-80
2021/08/05 01:09:52;;;;;;;5.53;3.80;;;;;;;16.17;80.29;100172.44;4956205;28;20062;-80
2021/08/05 01:12:42;;;;;;;5.95;3.60;;;;;;;16.15;80.19;100170.75;4960353;28;20034;-79
2021/08/05 01:15:09;;;;;;;6.43;3.80;;;;;;;16.18;79.93;100163.50;4966588;28;20037;-80
2021/08/05 01:17:40;;;;;;;5.13;2.92;;;;;;;16.18;79.47;100158.19;4950818;28;20490;-80
2021/08/05 01:20:08;;;;;;;6.03;4.68;;;;;;;16.13;79.80;100165.47;4976230;28;20089;-79
2021/08/05 01:22:45;;;;;;;5.50;3.30;;;;;;;15.98;80.63;100161.56;4984712;28;20038;-80
2021/08/05 01:25:39;;;;;;;6.43;3.80;;;;;;;15.88;81.65;100148.63;4966088;28;20062;-80
2021/08/05 01:28:04;;;;;;;5.45;4.13;;;;;;;15.94;80.97;100159.06;4982507;28;20026;-80
2021/08/05 01:30:31;;;;;;;5.75;4.30;;;;;;;15.87;81.99;100158.38;4975074;28;20050;-79
2021/08/05 01:32:58;;;;;;;7.57;5.07;;;;;;;15.93;82.38;100157.31;4983880;28;20043;-79
2021/08/05 01:35:25;;;;;;;4.75;3.78;;;;;;;15.92;81.41;100155.56;4983324;28;20023;-81
2021/08/05 01:37:51;;;;;;;5.60;3.90;;;;;;;15.94;80.85;100151.94;4963273;28;20035;-80
2021/08/05 01:40:18;;;;;;;6.68;3.47;;;;;;;15.95;80.96;100155.44;4972103;28;20388;-80
2021/08/05 01:42:44;;;;;;;6.25;3.65;;;;;;;15.94;nan;100148.41;4981053;28;20050;-80
2021/08/05 01:45:10;;;;;;;6.30;4.22;;;;;;;15.90;81.07;100145.00;4963893;28;20035;-79
2021/08/05 01:47:39;;;;;;;5.80;3.90;;;;;;;15.87;81.58;100149.53;4960685;28;20030;-79
2021/08/05 01:50:07;;;;;;;5.57;4.00;;;;;;;15.89;81.24;100153.88;4981140;28;20107;-80
2021/08/05 01:52:34;;;;;;;5.72;4.22;;;;;;;15.87;80.91;100153.06;4982439;28;20101;-80
2021/08/05 01:55:00;;;;;;;9.45;5.57;;;;;;;15.82;81.03;100149.69;4964526;28;20046;-80
2021/08/05 01:57:26;;;;;;;6.05;4.70;;;;;;;15.75;81.93;100143.72;4964451;28;20035;-80
2021/08/05 01:59:51;;;;;;;7.15;5.03;;;;;;;15.65;82.26;100146.69;4973618;28;20046;-80
2021/08/05 02:02:16;;;;;;;6.25;4.35;;;;;;;15.60;82.29;100152.16;4973854;28;20035;-80
2021/08/05 02:05:03;;;;;;;5.18;3.35;;;;;;;15.58;81.90;100159.31;4982359;28;20042;-80
2021/08/05 02:07:32;;;;;;;6.13;3.72;;;;;;;15.56;81.70;100154.06;4943568;28;20082;-79
2021/08/05 02:10:24;;;;;;;7.00;4.65;;;;;;;15.49;81.76;100152.50;4965365;28;20086;-80
2021/08/05 02:13:02;;;;;;;6.07;4.70;;;;;;;15.49;81.68;100155.19;4953635;28;20521;-80
2021/08/05 02:15:31;;;;;;;5.88;4.63;;;;;;;15.57;81.71;100160.25;4965248;28;20086;-80
2021/08/05 02:17:58;;;;;;;5.63;4.82;;;;;;;15.59;81.16;100146.88;4965064;28;20422;-80
2021/08/05 02:20:24;;;;;;;5.63;3.63;;;;;;;15.52;81.18;100151.53;4965784;28;20502;-80
2021/08/05 02:22:51;;;;;;;4.20;3.22;;;;;;;15.45;81.53;100155.31;4957585;28;20039;-80
2021/08/05 02:25:17;;;;;;;5.05;3.90;;;;;;;15.46;81.51;100159.72;4972437;28;20046;-80
2021/08/05 02:27:46;;;;;;;4.90;3.85;;;;;;;15.42;81.80;100158.06;4962218;28;20027;-79
2021/08/05 02:30:14;;;;;;;5.93;4.68;;;;;;;15.42;81.95;100147.44;4983199;28;20824;-80
2021/08/05 02:32:41;;;;;;;5.75;4.25;;;;;;;15.45;81.81;100156.19;4972342;28;20447;-79
2021/08/05 02:35:08;;;;;;;4.97;3.92;;;;;;;15.44;81.81;100149.13;4972890;28;20031;-80
2021/08/05 02:37:36;;;;;;;6.75;4.38;;;;;;;15.42;81.69;100158.06;4963469;28;20513;-80
2021/08/05 02:40:03;;;;;;;5.95;4.72;;;;;;;15.40;81.69;100147.47;4948985;28;20038;-80
2021/08/05 02:42:29;;;;;;;7.03;3.90;;;;;;;15.45;82.45;100150.84;4978173;28;20041;-80
2021/08/05 02:44:56;;;;;;;6.30;5.20;;;;;;;15.49;81.83;100146.34;4964902;28;20038;-80
2021/08/05 02:47:21;;;;;;;5.60;4.47;;;;;;;15.54;82.08;100144.41;4965626;28;20565;-80
2021/08/05 02:49:48;;;;;;;7.40;5.22;;;;;;;15.58;81.90;100135.38;4965792;28;20034;-80
2021/08/05 02:52:14;;;;;;;6.28;4.70;;;;;;;15.60;82.22;100143.31;4965186;28;20031;-80
2021/08/05 02:54:40;;;;;;;6.10;5.03;;;;;;;15.66;81.75;100137.78;4963864;28;20559;-80
2021/08/05 02:57:06;;;;;;;5.53;4.43;;;;;;;15.73;81.58;100139.34;4981217;28;20106;-80
2021/08/05 02:59:32;;;;;;;6.97;5.80;;;;;;;15.72;81.74;100135.84;4981247;28;20401;-79
2021/08/05 03:01:58;;;;;;;8.52;7.63;;;;;;;15.70;81.88;100137.66;4980677;28;20038;-80
2021/08/05 03:04:29;;;;;;;7.95;7.15;;;;;;;15.70;82.20;100128.81;4981994;28;20038;-80
2021/08/05 03:06:55;;;;;;;7.43;6.63;;;;;;;15.72;82.72;100135.84;4960001;28;20490;-81
2021/08/05 03:09:20;;;;;;;7.15;6.43;;;;;;;15.83;82.42;100134.59;4983116;28;20053;-81
2021/08/05 03:11:46;;;;;;;8.68;7.43;;;;;;;15.92;81.90;100137.78;4983118;28;20038;-81
2021/08/05 03:14:11;;;;;;;10.35;8.10;;;;;;;15.94;82.13;100137.75;4965693;28;20108;-81
2021/08/05 03:16:37;;;;;;;8.48;7.63;;;;;;;15.92;81.92;100139.59;4983724;28;20034;-81
2021/08/05 03:19:02;;;;;;;10.68;8.63;;;;;;;15.87;82.23;100130.91;4981916;28;20053;-81
2021/08/05 03:21:27;;;;;;;8.98;7.85;;;;;;;15.93;82.25;100136.03;4983541;28;20050;-81
2021/08/05 03:23:53;;;;;;;9.48;7.13;;;;;;;16.03;81.91;100142.75;4965543;28;20077;-79
2021/08/05 03:26:18;;;;;;;9.23;7.80;;;;;;;16.07;81.44;100133.75;4964223;28;20039;-80
2021/08/05 03:28:43;;;;;;;11.77;8.07;;;;;;;16.08;81.74;100131.94;4978400;28;20041;-80
2021/08/05 03:31:09;;;;;;;9.20;7.38;;;;;;;16.09;81.52;100129.25;4978995;28;20042;-81
2021/08/05 03:33:34;;;;;;;9.68;8.02;;;;;;;16.13;81.41;100124.66;4979537;28;20038;-79
2021/08/05 03:35:59;;;;;;;9.13;8.18;;;;;;;16.10;81.56;100122.13;4980186;28;20061;-80
2021/08/05 03:38:25;;;;;;;9.73;8.60;;;;;;;16.12;81.67;100125.59;4980296;28;20070;-81
2021/08/05 03:40:51;;;;;;;9.48;8.48;;;;;;;16.16;81.29;100125.41;4971322;28;20034;-80
2021/08/05 03:43:16;;;;;;;9.82;8.63;;;;;;;16.16;81.82;100127.22;4976870;28;20058;-80
2021/08/05 03:45:42;;;;;;;8.75;7.85;;;;;;;16.14;82.02;100121.97;4981270;28;20038;-80
2021/08/05 03:48:07;;;;;;;9.65;7.90;;;;;;;16.24;81.38;100116.28;4941953;28;20516;-81
2021/08/05 03:50:32;;;;;;;11.02;8.10;;;;;;;16.32;81.12;100116.88;4978980;28;20239;-81
2021/08/05 03:52:58;;;;;;;10.32;8.65;;;;;;;16.30;81.00;100122.28;4979934;28;20045;-80
2021/08/05 03:55:23;;;;;;;10.07;8.18;;;;;;;16.30;81.01;100121.41;4962842;28;20058;-80
2021/08/05 03:57:48;;;;;;;10.10;9.18;;;;;;;16.33;81.24;100118.63;4980233;28;20039;-81
2021/08/05 04:00:17;;;;;;;10.10;9.10;;;;;;;16.30;81.11;100121.41;4961157;28;20069;-80
2021/08/05 04:02:43;;;;;;;10.00;8.77;;;;;;;16.29;81.25;100125.84;4978266;28;20126;-80
2021/08/05 04:05:09;;;;;;;11.23;10.00;;;;;;;16.30;81.37;100119.63;4955807;28;20051;-81
2021/08/05 04:07:35;;;;;;;11.07;9.60;;;;;;;16.30;81.47;100119.63;4977894;28;20053;-81
2021/08/05 04:10:00;;;;;;;10.27;8.20;;;;;;;16.34;81.28;100118.56;4976328;28;20145;-80
2021/08/05 04:12:26;;;;;;;9.35;8.38;;;;;;;16.41;81.23;100116.56;4976850;28;20039;-81
2021/08/05 04:14:51;;;;;;;9.48;7.82;;;;;;;16.50;81.09;100116.19;4967867;28;20039;-80
2021/08/05 04:17:16;;;;;;;9.32;8.38;;;;;;;16.55;80.92;100116.03;4972867;28;20035;-80
2021/08/05 04:19:41;;;;;;;9.10;8.18;;;;;;;16.53;80.75;100110.78;4976201;28;20098;-80
2021/08/05 04:22:07;;;;;;;8.35;7.38;;;;;;;16.53;80.80;100110.78;4975899;28;20078;-80
2021/08/05 04:24:32;;;;;;;9.85;8.60;;;;;;;16.60;80.67;100106.94;4974941;28;20054;-80
2021/08/05 04:26:57;;;;;;;11.20;9.57;;;;;;;16.68;80.18;100114.66;4958029;28;20034;-80
2021/08/05 04:29:23;;;;;;;10.57;8.20;;;;;;;16.73;80.23;100111.81;4975193;28;20113;-80
2021/08/05 04:31:48;;;;;;;11.15;8.82;;;;;;;16.76;80.05;100119.69;4958780;28;20445;-79
2021/08/05 04:34:14;;;;;;;9.15;8.25;;;;;;;16.83;79.75;100102.56;4973060;28;20699;-80
2021/08/05 04:36:39;;;;;;;12.55;8.38;;;;;;;16.92;79.78;100107.53;4972285;28;20109;-80
2021/08/05 04:39:05;;;;;;;8.85;7.80;;;;;;;16.98;79.52;100099.31;4973012;28;20023;-80
2021/08/05 04:41:30;;;;;;;8.60;7.70;;;;;;;17.05;79.14;100103.44;4975359;28;20058;-81
2021/08/05 04:43:57;;;;;;;10.10;7.28;;;;;;;17.15;78.61;100097.78;4973733;28;20089;-80
2021/08/05 04:46:23;;;;;;;8.75;7.95;;;;;;;17.15;78.70;100101.31;4970183;28;20526;-80
2021/08/05 04:48:48;;;;;;;8.70;7.90;;;;;;;17.17;78.67;100101.25;4964287;28;20045;-81
2021/08/05 04:51:13;;;;;;;10.10;8.45;;;;;;;17.17;78.73;100090.59;4962317;28;20035;-81
2021/08/05 04:53:39;;;;;;;12.15;8.77;;;;;;;17.20;78.42;100096.66;4961714;28;20424;-80
2021/08/05 04:56:04;;;;;;;8.48;7.65;;;;;;;17.29;78.44;100090.06;4975901;28;20035;-80
2021/08/05 04:58:30;;;;;;;10.90;8.05;;;;;;;17.34;78.32;100096.06;4978633;28;20458;-80
2021/08/05 05:00:55;;;;;;;9.32;7.55;;;;;;;17.37;78.12;100101.31;4979577;28;20041;-81
2021/08/05 05:03:20;;;;;;;8.80;8.00;;;;;;;17.44;77.95;100093.91;4979616;28;20030;-81
2021/08/05 05:05:45;;;;;;;7.80;6.88;;;;;;;17.53;78.02;100091.75;4979359;28;20039;-80
2021/08/05 05:08:12;;;;;;;11.75;7.82;;;;;;;17.59;78.30;100087.94;4980113;28;20433;-80
2021/08/05 05:10:37;;;;;;;8.05;7.25;;;;;;;17.66;77.63;100083.22;4962336;28;20039;-80
2021/08/05 05:13:03;;;;;;;8.40;7.30;;;;;;;17.73;78.01;100087.34;4969861;28;20560;-81
2021/08/05 05:15:28;;;;;;;9.32;7.35;;;;;;;17.75;77.33;100082.81;4978517;28;20109;-81
2021/08/05 05:17:53;;;;;;;9.18;7.22;;;;;;;17.80;77.63;100093.34;4979444;28;20078;-80
2021/08/05 05:20:19;;;;;;;9.52;7.43;;;;;;;17.85;77.43;100083.34;4978825;28;20098;-80
2021/08/05 05:22:44;;;;;;;8.80;7.90;;;;;;;17.86;77.34;100088.59;4979470;28;20043;-80
2021/08/05 05:25:11;;;;;;;10.73;7.63;;;;;;;17.93;76.89;100084.72;4978043;28;20066;-80
2021/08/05 05:27:38;;;;;;;9.05;7.60;;;;;;;17.98;76.58;100087.19;4959495;28;20106;-80
2021/08/05 05:30:04;;;;;;;8.68;7.78;;;;;;;18.01;76.98;100083.53;4976756;28;20050;-80
2021/08/05 05:32:31;;;;;;;9.32;6.70;;;;;;;18.04;76.51;100078.91;4957601;28;20046;-80
2021/08/05 05:34:56;;;;;;;8.45;7.03;;;;;;;18.12;76.22;100078.56;4978569;28;20046;-80
2021/08/05 05:37:23;;;;;;;7.18;6.45;;;;;;;18.27;75.80;100075.22;4978372;28;20445;-80
2021/08/05 05:39:52;;;;;;;10.32;7.38;;;;;;;18.40;75.54;100071.03;4975725;28;20034;-80
2021/08/05 05:42:18;;;;;;;8.07;7.28;;;;;;;18.46;75.31;100072.56;4974594;28;20038;-81
2021/08/05 05:44:44;;;;;;;7.57;6.38;;;;;;;18.55;74.71;100079.31;4973710;28;20039;-81
2021/08/05 05:47:09;;;;;;;7.25;6.20;;;;;;;18.60;74.27;100075.47;4973772;28;20047;-81
2021/08/05 05:49:35;;;;;;;7.60;6.80;;;;;;;18.62;74.59;100080.75;4985893;28;20493;-81
2021/08/05 05:52:00;;;;;;;10.80;7.30;;;;;;;18.69;74.13;100082.19;4979819;28;20053;-80
2021/08/05 05:54:25;;;;;;;8.93;7.15;;;;;;;18.65;73.90;100075.25;4971241;28;20080;-80
2021/08/05 05:56:51;;;;;;;7.47;6.72;;;;;;;18.56;74.27;100084.56;4985760;28;20078;-81
2021/08/05 05:59:16;;;;;;;7.85;6.05;;;;;;;18.61;74.02;100074.53;4980508;28;20386;-81
2021/08/05 06:01:42;;;;;;;6.97;5.78;;;;;;;18.77;74.14;100080.06;4980800;28;20050;-80
2021/08/05 06:04:07;;;;;;;10.40;9.30;;;;;;;18.97;73.66;100073.78;4980845;28;20041;-80
2021/08/05 06:06:32;;;;;;;12.00;10.23;;;;;;;19.18;72.83;100076.34;4971798;28;20062;-81
2021/08/05 06:09:00;;;;;;;10.73;9.63;;;;;;;19.35;72.02;100075.50;4980854;28;20058;-81
2021/08/05 06:11:26;;;;;;;10.63;9.60;;;;;;;19.52;71.95;100086.25;4972356;28;20039;-80
2021/08/05 06:13:53;;;;;;;9.98;9.07;;;;;;;19.66;71.17;100089.13;4981471;28;20042;-81
2021/08/05 06:16:19;;;;;;;9.57;8.52;;;;;;;19.77;70.87;100085.03;4963520;28;20042;-81
2021/08/05 06:18:44;;;;;;;8.38;6.53;;;;;;;19.76;69.69;100076.13;4981619;28;20041;-81
2021/08/05 06:21:09;;;;;;;9.15;6.00;;;;;;;19.84;69.90;100084.63;4964379;28;20110;-81
2021/08/05 06:23:35;;;;;;;7.10;6.40;;;;;;;19.96;70.12;100088.47;4964437;28;20422;-81
2021/08/05 06:26:00;;;;;;;7.38;6.68;;;;;;;20.03;69.52;100083.69;4980396;28;20050;-81
2021/08/05 06:28:25;;;;;;;10.10;7.63;;;;;;;19.91;69.84;100088.72;4947998;28;20054;-81
2021/08/05 06:30:51;;;;;;;10.10;7.15;;;;;;;19.91;69.66;100082.47;4982731;28;20046;-81
2021/08/05 06:33:16;;;;;;;8.43;6.95;;;;;;;19.92;69.48;100086.91;4973660;28;20046;-81
2021/08/05 06:35:41;;;;;;;6.97;5.93;;;;;;;19.90;69.29;100078.94;4963363;28;20046;-80
2021/08/05 06:38:07;;;;;;;7.63;6.93;;;;;;;19.89;69.67;100084.41;4982091;28;20057;-81
2021/08/05 06:40:32;;;;;;;7.20;6.50;;;;;;;19.98;69.72;100077.69;4982194;28;20047;-81
2021/08/05 06:42:57;;;;;;;8.23;6.25;;;;;;;20.02;69.10;100085.50;4983504;28;20039;-81
2021/08/05 06:45:23;;;;;;;6.97;6.28;;;;;;;20.05;69.22;100088.00;4982516;28;20038;-82
2021/08/05 06:47:50;;;;;;;7.85;6.82;;;;;;;20.03;68.73;100087.22;4983105;28;20026;-81
2021/08/05 06:50:16;;;;;;;9.68;6.90;;;;;;;19.95;68.66;100089.44;4965110;28;20047;-81
2021/08/05 06:52:41;;;;;;;7.07;6.28;;;;;;;19.68;69.16;100086.38;4960987;28;20070;-81
2021/08/05 06:55:07;;;;;;;7.75;6.78;;;;;;;19.51;69.61;100087.16;4978790;28;20656;-81
2021/08/05 06:57:32;;;;;;;10.13;6.72;;;;;;;19.50;69.89;100082.78;4966426;28;20058;-81
2021/08/05 06:59:58;;;;;;;7.88;6.22;;;;;;;19.53;70.23;100087.97;4974592;28;20038;-81
2021/08/05 07:02:24;;;;;;;6.28;5.68;;;;;;;19.72;69.90;100087.06;4965737;28;20042;-81
2021/08/05 07:04:49;;;;;;;6.97;5.38;;;;;;;20.03;69.52;100083.69;4983198;28;20054;-81
2021/08/05 07:07:14;;;;;;;6.93;5.15;;;;;;;20.29;68.60;100082.28;4982556;28;20035;-81
2021/08/05 07:09:40;;;;;;;6.72;5.35;;;;;;;20.60;67.47;100086.03;4982096;28;20549;-81
2021/08/05 07:12:05;;;;;;;6.18;5.57;;;;;;;20.87;67.02;100087.19;4982475;28;20038;-81
2021/08/05 07:14:31;;;;;;;7.70;5.40;;;;;;;21.00;66.65;100093.56;4981794;28;20034;-81
2021/08/05 07:16:56;;;;;;;8.35;7.38;;;;;;;21.16;66.25;100087.34;4964237;28;20133;-81
2021/08/05 07:19:22;;;;;;;11.38;8.85;;;;;;;21.28;65.36;100085.81;4972495;28;20074;-81
2021/08/05 07:21:47;;;;;;;7.15;6.13;;;;;;;21.31;64.78;100086.47;4960675;29;20085;-81
2021/08/05 07:24:13;;;;;;;5.18;4.63;;;;;;;21.35;64.20;100077.31;4959445;28;20050;-81
2021/08/05 07:26:40;;;;;;;6.20;5.60;;;;;;;21.45;63.58;100088.38;4981380;28;20558;-81
2021/08/05 07:29:05;;;;;;;5.57;4.97;;;;;;;21.50;63.10;100080.06;4972721;28;20046;-81
2021/08/05 07:31:31;;;;;;;6.57;4.55;;;;;;;21.58;63.34;100085.84;4963824;28;20170;-81
2021/08/05 07:33:56;;;;;;;6.30;5.15;;;;;;;21.70;63.03;100073.53;4980917;28;20551;-81
2021/08/05 07:36:23;;;;;;;5.43;4.68;;;;;;;21.68;62.74;100068.25;4980744;28;20047;-81
2021/08/05 07:38:48;;;;;;;7.45;4.97;;;;;;;21.60;62.93;100071.38;4981510;28;20038;-81
2021/08/05 07:41:14;;;;;;;6.40;5.10;;;;;;;21.39;63.23;100081.56;4964322;28;20039;-81
2021/08/05 07:43:40;;;;;;;7.15;5.18;;;;;;;21.26;63.66;100072.44;4963574;28;20042;-81
2021/08/05 07:46:05;;;;;;;7.30;5.93;;;;;;;21.21;63.45;100085.28;4972143;28;20046;-81
2021/08/05 07:48:31;;;;;;;6.25;5.65;;;;;;;21.25;63.77;100068.06;4981903;28;20022;-81
2021/08/05 07:50:56;;;;;;;6.13;5.53;;;;;;;21.18;63.48;100069.34;4981250;28;20042;-81
2021/08/05 07:53:21;;;;;;;5.53;4.88;;;;;;;21.31;63.69;100062.31;4982302;28;20070;-81
2021/08/05 07:55:46;;;;;;;8.63;4.88;;;;;;;21.61;63.11;100062.38;4980901;28;20046;-81
2021/08/05 07:58:12;;;;;;;7.13;6.18;;;;;;;21.76;61.81;100059.72;4981674;28;20035;-81
2021/08/05 08:00:37;;;;;;;7.68;5.10;;;;;;;21.62;62.57;100064.09;4964529;28;20039;-81
2021/08/05 08:03:03;;;;;;;9.10;5.68;;;;;;;21.55;63.36;100064.56;4982459;28;20618;-81
2021/08/05 08:05:28;;;;;;;6.53;5.88;;;;;;;21.61;62.88;100058.81;4981129;28;20085;-81
2021/08/05 08:07:54;;;;;;;6.40;5.55;;;;;;;21.79;62.29;100060.38;4981382;28;20043;-80
2021/08/05 08:10:19;;;;;;;6.63;5.80;;;;;;;21.66;61.95;100064.78;4982475;28;20572;-81
2021/08/05 08:12:45;;;;;;;7.35;5.80;;;;;;;21.72;62.22;100069.78;4981516;28;20042;-81
2021/08/05 08:15:11;;;;;;;8.57;6.28;;;;;;;21.94;61.30;100065.81;4981319;28;20070;-80
2021/08/05 08:17:37;;;;;;;8.70;6.10;;;;;;;22.03;61.85;100057.19;4965276;28;20043;-81
2021/08/05 08:20:05;;;;;;;7.03;6.32;;;;;;;22.09;61.21;100056.81;4982369;28;20045;-81
2021/08/05 08:22:30;;;;;;;7.85;6.35;;;;;;;22.09;60.20;100056.81;4962849;28;20044;-80
2021/08/05 08:24:55;;;;;;;7.35;6.30;;;;;;;22.12;60.47;100058.47;4988151;28;20098;-81
2021/08/05 08:27:21;;;;;;;7.07;6.10;;;;;;;22.38;60.69;100051.50;4987816;28;20066;-81
2021/08/05 08:29:46;;;;;;;8.85;5.88;;;;;;;22.59;60.07;100055.50;4988264;28;20039;-81
2021/08/05 08:32:11;;;;;;;7.20;6.40;;;;;;;22.47;59.43;100046.38;4984285;28;20042;-81
2021/08/05 08:34:37;;;;;;;7.25;6.03;;;;;;;22.48;59.12;100041.88;4985867;28;20042;-81
2021/08/05 08:37:02;;;;;;;7.30;6.57;;;;;;;22.73;59.21;100046.53;4986427;28;20042;-81
2021/08/05 08:39:28;;;;;;;7.75;6.53;;;;;;;22.98;58.90;100043.16;4985582;28;20030;-81
2021/08/05 08:41:54;;;;;;;7.72;6.30;;;;;;;23.28;57.46;100036.72;4983287;28;20046;-81
2021/08/05 08:44:19;;;;;;;8.50;7.30;;;;;;;23.52;57.52;100028.81;4967072;28;20038;-81
2021/08/05 08:46:47;;;;;;;8.90;7.93;;;;;;;23.83;57.40;100028.47;4988518;28;20068;-81
2021/08/05 08:49:13;;;;;;;6.18;5.55;;;;;;;23.96;55.34;100033.84;4989830;28;20034;-81
2021/08/05 08:51:38;;;;;;;7.57;5.75;;;;;;;24.16;56.17;100028.91;4989514;28;20038;-81
2021/08/05 08:54:09;;;;;;;7.90;4.70;;;;;;;24.28;55.33;100036.13;4970726;28;20046;-81
2021/08/05 08:56:39;;;;;;;5.38;4.55;;;;;;;24.36;54.36;100031.03;4971654;28;20042;-81
2021/08/05 08:59:05;;;;;;;6.10;5.10;;;;;;;24.34;53.88;100032.13;4985697;28;20031;-81
2021/08/05 09:01:32;;;;;;;5.93;5.18;;;;;;;24.29;54.29;100024.38;4989197;28;20107;-81
2021/08/05 09:03:57;;;;;;;5.80;4.95;;;;;;;24.35;54.79;100017.69;4971531;28;20074;-81
2021/08/05 09:06:23;;;;;;;6.65;5.03;;;;;;;24.50;54.32;100022.00;4988680;28;20026;-81
2021/08/05 09:08:49;;;;;;;6.10;5.35;;;;;;;24.61;54.16;100019.38;4972012;28;20034;-81
2021/08/05 09:11:15;;;;;;;6.07;5.13;;;;;;;24.53;53.41;100012.84;4972670;28;20073;-81
2021/08/05 09:13:40;;;;;;;5.00;4.25;;;;;;;24.29;54.14;100010.91;4980799;28;20517;-81
2021/08/05 09:16:39;;;;;;;6.15;4.50;;;;;;;24.02;53.62;100006.47;4971563;28;20080;-81
2021/08/05 09:19:10;;;;;;;4.57;3.70;;;;;;;24.27;53.84;100004.75;4950363;28;20449;-81
2021/08/05 09:21:36;;;;;;;4.63;3.72;;;;;;;24.28;52.78;100001.91;4981376;28;20106;-81
2021/08/05 09:24:07;;;;;;;4.65;3.22;;;;;;;24.31;52.92;100006.22;4989255;28;20062;-80
2021/08/05 09:26:42;;;;;;;5.65;5.05;;;;;;;24.63;53.31;100000.41;4989565;28;20073;-81
2021/08/05 09:29:15;;;;;;;4.82;3.60;;;;;;;25.02;51.67;100003.78;4983421;28;20049;-81
2021/08/05 09:31:46;;;;;;;5.07;4.57;;;;;;;25.28;51.04;99996.47;4971846;28;20045;-81
2021/08/05 09:34:23;;;;;;;5.75;4.32;;;;;;;25.53;50.86;99984.66;4966857;28;20520;-80
2021/08/05 09:36:58;;;;;;;4.35;3.55;;;;;;;25.38;48.98;99975.88;4983488;28;20043;-81
2021/08/05 09:39:26;;;;;;;3.65;2.90;;;;;;;25.19;50.00;99989.06;4986796;28;20121;-81
2021/08/05 09:41:54;;;;;;;3.67;2.85;;;;;;;24.97;50.01;99987.09;4986437;28;20042;-81
2021/08/05 09:44:19;;;;;;;7.03;3.30;;;;;;;24.98;50.56;99980.72;4978141;28;20043;-81
2021/08/05 09:46:45;;;;;;;7.43;5.72;;;;;;;25.21;50.93;99974.47;4977176;28;20038;-81
2021/08/05 09:49:18;;;;;;;7.35;6.05;;;;;;;25.53;50.07;99977.41;4969426;28;20038;-81
2021/08/05 09:51:43;;;;;;;6.55;4.63;;;;;;;25.85;50.33;99970.50;4986694;28;20069;-81
2021/08/05 09:54:08;;;;;;;4.95;4.03;;;;;;;26.04;49.61;99964.50;4978447;28;20038;-82
2021/08/05 09:56:37;;;;;;;5.75;3.50;;;;;;;26.23;48.99;99962.06;4985064;28;20379;-81
2021/08/05 09:59:13;;;;;;;3.80;3.38;;;;;;;26.46;47.81;99962.88;4960391;28;20042;-81
2021/08/05 10:01:57;;;;;;;5.65;5.05;;;;;;;26.64;47.46;99965.94;4983383;28;20043;-82
2021/08/05 10:04:27;;;;;;;6.47;4.10;;;;;;;26.84;47.19;99958.91;4969143;28;20117;-81
2021/08/05 10:07:02;;;;;;;4.10;3.00;;;;;;;26.78;46.57;99962.97;4985949;28;20535;-81
2021/08/05 10:09:27;;;;;;;5.20;3.95;;;;;;;26.87;47.06;99953.22;4969609;28;20057;-81
2021/08/05 10:12:07;;;;;;;5.00;4.15;;;;;;;27.06;46.79;99955.25;4987387;28;20046;-82
2021/08/05 10:14:32;;;;;;;5.97;4.30;;;;;;;27.17;45.80;99959.75;4950556;28;20041;-82
2021/08/05 10:16:58;;;;;;;6.13;4.65;;;;;;;27.40;45.56;99950.56;4968581;28;20027;-82
2021/08/05 10:19:23;;;;;;;4.65;3.88;;;;;;;27.47;43.77;99943.63;4981823;28;20060;-82
2021/08/05 10:21:50;;;;;;;8.77;6.75;;;;;;;27.75;44.29;99954.81;4964365;28;20098;-82
2021/08/05 10:24:16;;;;;;;15.70;9.10;;;;;;;27.99;44.32;99954.53;4966406;28;20034;-82
2021/08/05 10:26:42;;;;;;;11.45;9.27;;;;;;;28.12;42.42;99948.88;4980792;28;20103;-82
2021/08/05 10:29:10;;;;;;;8.30;6.90;;;;;;;28.31;42.61;99948.09;4982070;28;20494;-82
2021/08/05 10:31:39;;;;;;;5.22;4.45;;;;;;;28.45;41.95;99947.72;4974595;28;20061;-81
2021/08/05 10:34:05;;;;;;;5.55;4.68;;;;;;;28.55;41.89;99945.03;4983823;28;20449;-82
2021/08/05 10:36:31;;;;;;;6.00;2.90;;;;;;;28.44;41.75;99947.88;4971627;28;20421;-82
2021/08/05 10:38:56;;;;;;;5.55;3.78;;;;;;;28.34;42.28;99945.94;4981399;28;20047;-81
2021/08/05 10:41:23;;;;;;;5.72;4.07;;;;;;;28.34;42.55;99937.81;4984414;28;20034;-83
2021/08/05 10:43:49;;;;;;;4.50;2.80;;;;;;;28.07;42.08;99937.56;4978039;28;20156;-82
2021/08/05 10:46:16;;;;;;;5.50;4.07;;;;;;;28.07;42.87;99937.56;4979541;28;20474;-82
2021/08/05 10:48:42;;;;;;;4.82;4.25;;;;;;;28.16;43.21;99939.44;4977406;28;20042;-82
2021/08/05 10:51:07;;;;;;;5.25;4.45;;;;;;;28.09;42.69;99936.44;4978057;28;20026;-83
2021/08/05 10:53:32;;;;;;;6.03;5.40;;;;;;;27.97;42.91;99940.22;4965830;28;20038;-82
2021/08/05 10:56:19;;;;;;;7.03;4.85;;;;;;;27.73;43.35;99932.38;4983259;28;20493;-82
2021/08/05 10:59:04;;;;;;;7.38;5.20;;;;;;;27.54;43.96;99931.28;4963942;28;20038;-82
2021/08/05 11:01:55;;;;;;;6.68;4.45;;;;;;;27.30;43.91;99925.25;4980545;28;20046;-82
2021/08/05 11:04:32;;;;;;;6.70;5.65;;;;;;;27.13;44.46;99928.50;4980733;28;20377;-82
2021/08/05 11:07:27;;;;;;;6.40;5.32;;;;;;;27.20;44.62;99918.91;4966542;28;20062;-81
2021/08/05 11:10:26;;;;;;;7.68;6.15;;;;;;;27.31;44.53;99921.56;4964635;28;20046;-82
2021/08/05 11:12:51;;;;;;;7.28;4.90;;;;;;;27.08;45.00;99921.63;4923952;28;20085;-82
2021/08/05 11:15:19;;;;;;;4.97;3.20;;;;;;;26.85;44.47;99920.88;4966217;28;20057;-82
2021/08/05 11:18:10;;;;;;;5.13;3.72;;;;;;;26.46;45.08;99922.28;4966382;28;20074;-82
2021/08/05 11:20:40;;;;;;;8.15;5.22;;;;;;;26.58;44.86;99918.59;4965759;28;20093;-82
2021/08/05 11:23:07;;;;;;;5.00;4.25;;;;;;;26.67;45.17;99923.28;4950547;28;20045;-82
2021/08/05 11:26:22;;;;;;;;;;;;;;;;;;;;;
2021/08/05 11:28:55;;;;;;;8.52;5.55;;;;;;;26.91;44.50;99918.63;4965128;28;20031;-81